createdAt,value
2023-04-09T00:00:35.194Z,90.04
2023-04-09T00:01:58.295Z,89.94
2023-04-09T00:02:35.214Z,90.14
2023-04-09T00:03:36.484Z,90.04
2023-04-09T00:04:35.199Z,90.25
2023-04-09T00:05:35.355Z,90.25
2023-04-09T00:06:35.115Z,90.25
2023-04-09T00:07:35.270Z,90.14
2023-04-09T00:08:35.095Z,90.66
2023-04-09T00:09:35.391Z,90.87
2023-04-09T00:10:35.104Z,90.97
2023-04-09T00:11:36.227Z,90.35
2023-04-09T00:12:35.057Z,90.25
2023-04-09T00:13:39.196Z,90.70
2023-04-09T00:14:35.121Z,90.70
2023-04-09T00:15:35.429Z,90.80
2023-04-09T00:16:35.126Z,90.91
2023-04-09T00:17:35.194Z,91.11
2023-04-09T00:18:35.061Z,91.22
2023-04-09T00:19:35.147Z,91.22
2023-04-09T00:20:34.985Z,91.22
2023-04-09T00:21:35.166Z,91.22
2023-04-09T00:22:34.952Z,91.32
2023-04-09T00:23:35.231Z,91.42
2023-04-09T00:24:34.952Z,92.15
2023-04-09T00:25:35.203Z,91.32
2023-04-09T00:26:34.922Z,91.74
2023-04-09T00:27:35.190Z,91.84
2023-04-09T00:28:35.005Z,91.63
2023-04-09T00:29:35.299Z,91.53
2023-04-09T00:30:34.962Z,91.84
2023-04-09T00:31:35.209Z,91.32
2023-04-09T00:32:34.863Z,91.22
2023-04-09T00:33:35.062Z,91.22
2023-04-09T00:34:34.832Z,91.32
2023-04-09T00:35:35.036Z,91.42
2023-04-09T00:36:34.833Z,91.63
2023-04-09T00:37:35.905Z,92.15
2023-04-09T00:38:34.800Z,91.53
2023-04-09T00:39:34.939Z,91.22
2023-04-09T00:40:34.832Z,91.22
2023-04-09T00:41:35.971Z,91.22
2023-04-09T00:42:34.777Z,90.91
2023-04-09T00:43:36.808Z,91.42
2023-04-09T00:44:34.722Z,90.80
2023-04-09T00:45:34.768Z,91.11
2023-04-09T00:46:34.712Z,91.42
2023-04-09T00:47:34.776Z,91.94
2023-04-09T00:48:34.704Z,91.42
2023-04-09T00:49:34.792Z,91.94
2023-04-09T00:50:34.704Z,91.42
2023-04-09T00:51:34.773Z,92.15
2023-04-09T00:52:34.646Z,91.53
2023-04-09T00:53:34.692Z,91.32
2023-04-09T00:54:34.624Z,91.42
2023-04-09T00:55:34.700Z,92.05
2023-04-09T00:56:34.622Z,91.94
2023-04-09T00:57:34.714Z,91.53
2023-04-09T00:58:34.589Z,92.25
2023-04-09T00:59:34.625Z,91.63
2023-04-09T01:00:34.563Z,91.42
2023-04-09T01:01:34.772Z,91.11
2023-04-09T01:02:34.773Z,91.01
2023-04-09T01:03:34.888Z,91.74
2023-04-09T01:04:34.523Z,91.32
2023-04-09T01:05:34.560Z,91.11
2023-04-09T01:06:34.501Z,90.91
2023-04-09T01:07:34.597Z,91.32
2023-04-09T01:08:34.488Z,91.42
2023-04-09T01:09:34.633Z,91.01
2023-04-09T01:10:34.460Z,91.26
2023-04-09T01:11:34.489Z,91.05
2023-04-09T01:12:34.436Z,91.16
2023-04-09T01:13:34.507Z,91.78
2023-04-09T01:14:34.430Z,92.30
2023-04-09T01:15:34.536Z,92.30
2023-04-09T01:16:34.419Z,91.99
2023-04-09T01:17:34.454Z,91.99
2023-04-09T01:18:34.380Z,92.19
2023-04-09T01:19:34.490Z,92.40
2023-04-09T01:20:34.343Z,91.67
2023-04-09T01:21:34.476Z,91.57
2023-04-09T01:22:34.730Z,91.88
2023-04-09T01:23:34.385Z,91.88
2023-04-09T01:24:34.311Z,91.63
2023-04-09T01:25:34.394Z,91.74
2023-04-09T01:26:34.291Z,91.32
2023-04-09T01:27:34.420Z,91.16
2023-04-09T01:28:34.293Z,91.36
2023-04-09T01:29:34.331Z,91.57
2023-04-09T01:30:34.306Z,91.16
2023-04-09T01:31:35.387Z,91.36
2023-04-09T01:32:34.235Z,91.16
2023-04-09T01:33:34.378Z,91.36
2023-04-09T01:34:34.223Z,91.47
2023-04-09T01:35:34.277Z,91.57
2023-04-09T01:36:34.178Z,92.19
2023-04-09T01:37:34.271Z,92.40
2023-04-09T01:38:34.170Z,92.30
2023-04-09T01:39:34.433Z,93.12
2023-04-09T01:40:34.155Z,92.71
2023-04-09T01:41:34.200Z,92.19
2023-04-09T01:42:34.136Z,91.78
2023-04-09T01:43:34.222Z,92.09
2023-04-09T01:44:34.127Z,92.40
2023-04-09T01:45:34.238Z,92.30
2023-04-09T01:46:34.127Z,92.30
2023-04-09T01:47:34.189Z,92.40
2023-04-09T01:48:34.074Z,92.50
2023-04-09T01:49:34.155Z,92.40
2023-04-09T01:50:34.040Z,91.88
2023-04-09T01:51:34.169Z,91.78
2023-04-09T01:52:34.031Z,91.67
2023-04-09T01:53:34.110Z,91.88
2023-04-09T01:54:33.995Z,91.99
2023-04-09T01:55:34.098Z,92.09
2023-04-09T01:56:33.983Z,91.16
2023-04-09T01:57:34.126Z,91.36
2023-04-09T01:58:33.999Z,91.78
2023-04-09T01:59:34.132Z,92.09
2023-04-09T02:00:33.974Z,92.81
2023-04-09T02:01:34.137Z,92.09
2023-04-09T02:02:34.064Z,93.23
2023-04-09T02:03:34.243Z,92.81
2023-04-09T02:04:33.898Z,91.57
2023-04-09T02:05:33.993Z,92.40
2023-04-09T02:06:33.882Z,91.88
2023-04-09T02:07:33.982Z,92.19
2023-04-09T02:08:33.857Z,92.19
2023-04-09T02:09:33.996Z,92.30
2023-04-09T02:10:33.855Z,92.40
2023-04-09T02:11:34.016Z,92.50
2023-04-09T02:12:33.816Z,92.50
2023-04-09T02:13:33.920Z,92.40
2023-04-09T02:14:33.820Z,92.61
2023-04-09T02:15:33.954Z,92.40
2023-04-09T02:16:33.796Z,92.81
2023-04-09T02:17:33.978Z,92.71
2023-04-09T02:18:33.757Z,92.30
2023-04-09T02:19:33.892Z,92.57
2023-04-09T02:20:33.744Z,91.67
2023-04-09T02:21:56.914Z,91.99
2023-04-09T02:22:33.703Z,91.63
2023-04-09T02:23:56.824Z,92.87
2023-04-09T02:24:33.707Z,92.25
2023-04-09T02:25:36.969Z,92.87
2023-04-09T02:26:33.674Z,91.94
2023-04-09T02:27:35.761Z,92.67
2023-04-09T02:28:33.660Z,92.46
2023-04-09T02:29:33.839Z,91.42
2023-04-09T02:30:33.657Z,91.84
2023-04-09T02:31:33.781Z,91.94
2023-04-09T02:32:33.684Z,90.95
2023-04-09T02:33:33.756Z,91.05
2023-04-09T02:34:33.583Z,91.67
2023-04-09T02:35:33.833Z,91.67
2023-04-09T02:36:33.566Z,91.99
2023-04-09T02:37:33.692Z,92.30
2023-04-09T02:38:33.559Z,92.40
2023-04-09T02:39:33.707Z,92.81
2023-04-09T02:40:33.551Z,92.09
2023-04-09T02:41:33.713Z,91.16
2023-04-09T02:42:33.509Z,91.47
2023-04-09T02:43:33.618Z,91.36
2023-04-09T02:44:33.489Z,91.57
2023-04-09T02:45:33.666Z,91.36
2023-04-09T02:46:33.571Z,91.47
2023-04-09T02:47:33.658Z,92.09
2023-04-09T02:48:33.447Z,91.88
2023-04-09T02:49:33.567Z,91.99
2023-04-09T02:50:33.455Z,91.88
2023-04-09T02:51:33.619Z,92.19
2023-04-09T02:52:33.416Z,92.71
2023-04-09T02:53:33.608Z,92.40
2023-04-09T02:54:33.403Z,92.30
2023-04-09T02:55:33.512Z,92.40
2023-04-09T02:56:33.393Z,92.50
2023-04-09T02:57:33.736Z,92.81
2023-04-09T02:58:33.345Z,92.30
2023-04-09T02:59:33.442Z,92.61
2023-04-09T03:00:33.340Z,92.30
2023-04-09T03:01:35.656Z,92.81
2023-04-09T03:02:33.402Z,92.50
2023-04-09T03:03:54.613Z,92.71
2023-04-09T03:04:33.289Z,92.40
2023-04-09T03:05:54.377Z,92.91
2023-04-09T03:06:33.276Z,92.50
2023-04-09T03:07:33.316Z,92.91
2023-04-09T03:08:33.232Z,92.40
2023-04-09T03:09:33.308Z,92.50
2023-04-09T03:10:33.226Z,92.40
2023-04-09T03:11:34.256Z,92.40
2023-04-09T03:12:33.205Z,92.61
2023-04-09T03:13:33.282Z,92.71
2023-04-09T03:14:35.130Z,93.23
2023-04-09T03:15:33.256Z,92.61
2023-04-09T03:16:33.167Z,92.87
2023-04-09T03:17:33.298Z,92.57
2023-04-09T03:18:33.160Z,91.99
2023-04-09T03:19:33.173Z,92.19
2023-04-09T03:20:33.120Z,92.30
2023-04-09T03:21:33.184Z,93.08
2023-04-09T03:22:33.121Z,92.50
2023-04-09T03:23:33.196Z,92.67
2023-04-09T03:24:33.078Z,92.81
2023-04-09T03:25:33.115Z,92.30
2023-04-09T03:26:33.057Z,91.99
2023-04-09T03:27:33.133Z,92.09
2023-04-09T03:28:33.067Z,91.88
2023-04-09T03:29:33.149Z,92.15
2023-04-09T03:30:33.025Z,92.30
2023-04-09T03:31:33.140Z,91.63
2023-04-09T03:32:33.046Z,91.05
2023-04-09T03:33:33.072Z,90.84
2023-04-09T03:34:32.978Z,91.05
2023-04-09T03:35:33.083Z,91.57
2023-04-09T03:36:32.958Z,92.30
2023-04-09T03:37:33.040Z,92.40
2023-04-09T03:38:32.926Z,92.09
2023-04-09T03:39:33.015Z,92.19
2023-04-09T03:40:32.925Z,91.88
2023-04-09T03:41:33.023Z,92.19
2023-04-09T03:42:32.919Z,92.30
2023-04-09T03:43:32.931Z,92.19
2023-04-09T03:44:32.879Z,91.36
2023-04-09T03:45:32.948Z,91.88
2023-04-09T03:46:32.874Z,92.30
2023-04-09T03:47:32.964Z,92.30
2023-04-09T03:48:32.823Z,91.88
2023-04-09T03:49:33.906Z,91.36
2023-04-09T03:50:32.810Z,91.36
2023-04-09T03:51:32.933Z,91.36
2023-04-09T03:52:32.799Z,91.47
2023-04-09T03:53:32.901Z,92.09
2023-04-09T03:54:32.780Z,92.50
2023-04-09T03:55:32.920Z,91.57
2023-04-09T03:56:32.775Z,92.50
2023-04-09T03:57:57.094Z,92.30
2023-04-09T03:58:32.717Z,92.30
2023-04-09T03:59:34.732Z,92.40
2023-04-09T04:00:32.700Z,92.50
2023-04-09T04:01:32.886Z,92.40
2023-04-09T04:02:32.810Z,93.02
2023-04-09T04:03:33.004Z,92.71
2023-04-09T04:04:32.714Z,92.61
2023-04-09T04:05:32.781Z,93.02
2023-04-09T04:06:32.642Z,92.61
2023-04-09T04:07:32.815Z,92.61
2023-04-09T04:08:32.642Z,92.40
2023-04-09T04:09:32.720Z,92.40
2023-04-09T04:10:32.612Z,93.12
2023-04-09T04:11:32.729Z,92.50
2023-04-09T04:12:32.571Z,92.50
2023-04-09T04:13:32.783Z,92.61
2023-04-09T04:14:32.571Z,93.43
2023-04-09T04:15:32.657Z,92.77
2023-04-09T04:16:32.600Z,92.61
2023-04-09T04:17:32.683Z,92.87
2023-04-09T04:18:32.518Z,92.97
2023-04-09T04:19:32.613Z,92.67
2023-04-09T04:20:32.499Z,92.05
2023-04-09T04:21:32.593Z,91.63
2023-04-09T04:22:32.473Z,92.87
2023-04-09T04:23:32.605Z,92.97
2023-04-09T04:24:32.464Z,93.08
2023-04-09T04:25:32.614Z,91.84
2023-04-09T04:26:32.442Z,91.84
2023-04-09T04:27:32.522Z,91.36
2023-04-09T04:28:32.415Z,91.47
2023-04-09T04:29:32.542Z,91.74
2023-04-09T04:30:32.419Z,91.99
2023-04-09T04:31:32.540Z,92.40
2023-04-09T04:32:32.417Z,92.19
2023-04-09T04:33:32.474Z,92.71
2023-04-09T04:34:32.386Z,92.30
2023-04-09T04:35:32.504Z,92.50
2023-04-09T04:36:32.360Z,92.30
2023-04-09T04:37:32.507Z,92.19
2023-04-09T04:38:32.316Z,92.61
2023-04-09T04:39:33.428Z,92.91
2023-04-09T04:40:32.294Z,93.02
2023-04-09T04:41:32.479Z,93.12
2023-04-09T04:42:32.276Z,93.23
2023-04-09T04:43:32.464Z,92.71
2023-04-09T04:44:32.264Z,92.91
2023-04-09T04:55:07.796Z,93.02
2023-04-09T04:56:08.621Z,92.09
2023-04-09T04:57:09.827Z,91.67
2023-04-09T04:58:08.599Z,91.67
2023-04-09T04:59:08.877Z,92.40
2023-04-09T05:00:11.316Z,92.71
2023-04-09T05:01:08.746Z,92.81
2023-04-09T05:02:08.688Z,92.81
2023-04-09T05:03:08.818Z,92.81
2023-04-09T05:04:08.532Z,93.02
2023-04-09T05:05:08.675Z,93.02
2023-04-09T05:06:08.503Z,92.91
2023-04-09T05:07:08.718Z,93.12
2023-04-09T05:08:08.490Z,93.23
2023-04-09T05:09:08.671Z,93.02
2023-04-09T05:10:08.514Z,93.33
2023-04-09T05:11:08.717Z,93.64
2023-04-09T05:12:08.449Z,93.12
2023-04-09T05:13:08.613Z,93.12
2023-04-09T05:14:08.429Z,93.95
2023-04-09T05:15:08.664Z,92.71
2023-04-09T05:16:08.447Z,93.12
2023-04-09T05:17:08.675Z,92.77
2023-04-09T05:18:08.384Z,93.18
2023-04-09T05:19:12.896Z,92.46
2023-04-09T05:20:08.363Z,93.08
2023-04-09T05:21:08.440Z,92.67
2023-04-09T05:22:08.337Z,93.08
2023-04-09T05:23:08.520Z,92.77
2023-04-09T05:24:08.318Z,93.08
2023-04-09T05:25:08.403Z,93.08
2023-04-09T05:26:08.301Z,93.29
2023-04-09T05:27:08.419Z,93.60
2023-04-09T05:28:08.284Z,93.29
2023-04-09T05:29:09.321Z,92.97
2023-04-09T05:30:08.289Z,92.97
2023-04-09T05:31:08.439Z,92.36
2023-04-09T05:32:08.246Z,92.67
2023-04-09T05:33:08.333Z,91.53
2023-04-09T05:34:08.232Z,91.74
2023-04-09T05:35:08.381Z,92.05
2023-04-09T05:36:08.627Z,92.25
2023-04-09T05:37:08.311Z,91.22
2023-04-09T05:38:08.178Z,92.05
2023-04-09T05:39:08.298Z,91.53
2023-04-09T05:40:08.172Z,92.36
2023-04-09T05:41:08.296Z,92.21
2023-04-09T05:42:08.173Z,92.25
2023-04-09T05:43:08.219Z,91.94
2023-04-09T05:44:08.113Z,91.80
2023-04-09T05:45:08.135Z,91.69
2023-04-09T05:46:08.167Z,90.87
2023-04-09T05:47:08.179Z,90.97
2023-04-09T05:48:08.081Z,90.56
2023-04-09T05:49:08.160Z,90.04
2023-04-09T05:50:08.060Z,90.04
2023-04-09T05:51:08.172Z,90.25
2023-04-09T05:52:08.041Z,90.04
2023-04-09T05:53:08.104Z,89.83
2023-04-09T05:54:08.027Z,89.83
2023-04-09T05:55:08.157Z,89.62
2023-04-09T05:56:07.991Z,89.62
2023-04-09T05:57:08.095Z,89.73
2023-04-09T05:58:07.994Z,89.94
2023-04-09T05:59:09.019Z,89.94
2023-04-09T06:00:07.991Z,90.14
2023-04-09T06:01:08.078Z,89.73
2023-04-09T06:02:08.055Z,89.32
2023-04-09T06:03:08.162Z,89.42
2023-04-09T06:04:07.971Z,89.22
2023-04-09T06:05:08.043Z,89.32
2023-04-09T06:06:07.905Z,89.01
2023-04-09T06:07:10.016Z,89.48
2023-04-09T06:08:07.889Z,88.86
2023-04-09T06:09:08.996Z,88.86
2023-04-09T06:10:07.898Z,89.17
2023-04-09T06:11:08.909Z,88.86
2023-04-09T06:12:07.848Z,88.34
2023-04-09T06:13:28.910Z,87.83
2023-04-09T06:14:07.835Z,88.34
2023-04-09T06:15:09.937Z,88.34
2023-04-09T06:16:07.826Z,88.45
2023-04-09T06:17:09.901Z,87.93
2023-04-09T06:18:07.834Z,88.04
2023-04-09T06:19:07.875Z,88.31
2023-04-09T06:20:07.768Z,87.89
2023-04-09T06:21:07.864Z,87.68
2023-04-09T06:22:07.729Z,87.48
2023-04-09T06:23:07.902Z,87.79
2023-04-09T06:24:07.786Z,87.89
2023-04-09T06:25:07.823Z,87.48
2023-04-09T06:26:07.695Z,86.96
2023-04-09T06:27:07.827Z,86.96
2023-04-09T06:28:07.675Z,86.76
2023-04-09T06:29:07.829Z,87.27
2023-04-09T06:30:07.656Z,86.44
2023-04-09T06:31:07.828Z,86.24
2023-04-09T06:32:07.631Z,86.51
2023-04-09T06:33:07.816Z,86.71
2023-04-09T06:34:07.612Z,85.89
2023-04-09T06:35:09.725Z,85.68
2023-04-09T06:36:07.622Z,85.58
2023-04-09T06:37:07.678Z,86.20
2023-04-09T06:38:07.580Z,85.89
2023-04-09T06:39:07.680Z,85.27
2023-04-09T06:40:07.565Z,85.17
2023-04-09T06:41:07.811Z,85.17
2023-04-09T06:42:07.692Z,85.17
2023-04-09T06:43:07.600Z,85.58
2023-04-09T06:44:07.555Z,85.47
2023-04-09T06:45:07.941Z,85.06
2023-04-09T06:46:07.483Z,84.92
2023-04-09T06:47:07.681Z,84.72
2023-04-09T06:48:07.463Z,84.72
2023-04-09T06:49:07.571Z,85.02
2023-04-09T06:50:07.450Z,84.92
2023-04-09T06:51:07.613Z,84.41
2023-04-09T06:52:07.436Z,84.09
2023-04-09T06:53:07.579Z,84.41
2023-04-09T06:54:07.426Z,85.02
2023-04-09T06:55:07.490Z,84.27
2023-04-09T06:56:07.611Z,84.06
2023-04-09T06:57:07.457Z,84.27
2023-04-09T06:58:07.354Z,83.64
2023-04-09T06:59:07.553Z,83.64
2023-04-09T07:00:07.326Z,83.64
2023-04-09T07:01:08.512Z,83.64
2023-04-09T07:02:07.523Z,84.06
2023-04-09T07:03:07.409Z,83.85
2023-04-09T07:04:07.478Z,83.64
2023-04-09T07:05:08.489Z,83.99
2023-04-09T07:06:07.313Z,84.09
2023-04-09T07:07:07.637Z,83.68
2023-04-09T07:08:07.336Z,83.58
2023-04-09T07:09:07.414Z,83.58
2023-04-09T07:10:07.287Z,83.78
2023-04-09T07:11:07.403Z,83.78
2023-04-09T07:12:07.255Z,84.20
2023-04-09T07:13:07.352Z,83.89
2023-04-09T07:14:07.185Z,84.30
2023-04-09T07:15:07.635Z,85.44
2023-04-09T07:16:07.180Z,85.75
2023-04-09T07:17:07.236Z,85.13
2023-04-09T07:18:07.191Z,86.05
2023-04-09T07:19:07.254Z,84.44
2023-04-09T07:20:07.132Z,85.17
2023-04-09T07:21:07.297Z,85.47
2023-04-09T07:22:07.110Z,85.17
2023-04-09T07:23:07.168Z,84.86
2023-04-09T07:24:07.074Z,85.17
2023-04-09T07:25:07.189Z,86.10
2023-04-09T07:26:07.067Z,87.60
2023-04-09T07:27:07.159Z,86.98
2023-04-09T07:28:07.060Z,86.05
2023-04-09T07:29:07.231Z,86.05
2023-04-09T07:30:07.027Z,84.92
2023-04-09T07:31:07.172Z,81.37
2023-04-09T07:32:06.999Z,80.76
2023-04-09T07:33:07.133Z,80.04
2023-04-09T07:34:06.983Z,81.99
2023-04-09T07:35:07.109Z,82.51
2023-04-09T07:36:07.063Z,82.92
2023-04-09T07:37:07.018Z,81.79
2023-04-09T07:38:06.928Z,82.61
2023-04-09T07:39:06.997Z,81.17
2023-04-09T07:40:06.923Z,82.51
2023-04-09T07:41:08.029Z,83.29
2023-04-09T07:42:06.935Z,81.96
2023-04-09T07:43:06.914Z,79.07
2023-04-09T07:44:06.933Z,79.27
2023-04-09T07:45:06.952Z,80.06
2023-04-09T07:46:06.865Z,79.03
2023-04-09T07:47:07.959Z,79.44
2023-04-09T07:48:06.830Z,78.38
2023-04-09T07:49:06.879Z,76.93
2023-04-09T07:50:06.802Z,76.93
2023-04-09T07:51:06.903Z,76.39
2023-04-09T07:52:06.795Z,75.15
2023-04-09T07:53:06.946Z,75.05
2023-04-09T07:54:06.764Z,74.98
2023-04-09T07:55:06.819Z,74.88
2023-04-09T07:56:06.828Z,75.08
2023-04-09T07:57:06.926Z,74.02
2023-04-09T07:58:06.910Z,74.12
2023-04-09T07:59:06.945Z,73.57
2023-04-09T08:00:06.710Z,72.85
2023-04-09T08:01:06.809Z,74.50
2023-04-09T08:02:06.758Z,72.72
2023-04-09T08:03:07.057Z,74.57
2023-04-09T08:04:06.870Z,73.02
2023-04-09T08:05:06.880Z,71.79
2023-04-09T08:06:06.637Z,71.96
2023-04-09T08:07:06.728Z,71.86
2023-04-09T08:08:06.740Z,72.06
2023-04-09T08:09:06.697Z,71.45
2023-04-09T08:10:06.610Z,71.69
2023-04-09T08:11:06.707Z,71.69
2023-04-09T08:12:06.653Z,70.86
2023-04-09T08:13:06.614Z,72.00
2023-04-09T08:14:06.556Z,70.66
2023-04-09T08:15:06.622Z,69.73
2023-04-09T08:16:06.561Z,68.63
2023-04-09T08:17:06.626Z,69.25
2023-04-09T08:18:06.936Z,69.87
2023-04-09T08:19:06.571Z,70.18
2023-04-09T08:20:06.505Z,71.34
2023-04-09T08:21:06.493Z,70.62
2023-04-09T08:22:06.495Z,71.31
2023-04-09T08:23:06.586Z,71.31
2023-04-09T08:24:06.461Z,70.79
2023-04-09T08:25:06.465Z,70.79
2023-04-09T08:26:06.548Z,72.00
2023-04-09T08:27:06.440Z,69.73
2023-04-09T08:28:07.493Z,71.17
2023-04-09T08:29:06.417Z,70.56
2023-04-09T08:30:06.565Z,71.17
2023-04-09T08:31:06.398Z,69.84
2023-04-09T08:32:07.549Z,69.53
2023-04-09T08:33:06.411Z,70.56
2023-04-09T08:34:06.473Z,70.14
2023-04-09T08:35:06.355Z,70.21
2023-04-09T08:36:06.408Z,70.62
2023-04-09T08:37:06.336Z,71.66
2023-04-09T08:38:06.754Z,71.04
2023-04-09T08:39:06.301Z,70.52
2023-04-09T08:40:06.343Z,70.32
2023-04-09T08:41:06.288Z,72.17
2023-04-09T08:42:06.280Z,70.11
2023-04-09T08:43:06.258Z,69.15
2023-04-09T08:44:06.284Z,68.57
2023-04-09T08:45:06.258Z,69.18
2023-04-09T08:46:06.272Z,69.32
2023-04-09T08:47:06.218Z,70.35
2023-04-09T08:48:06.272Z,70.79
2023-04-09T08:49:06.206Z,70.79
2023-04-09T08:50:06.215Z,71.00
2023-04-09T08:51:06.196Z,72.85
2023-04-09T08:52:06.260Z,69.66
2023-04-09T08:53:06.177Z,71.51
2023-04-09T08:54:06.244Z,69.97
2023-04-09T08:55:06.195Z,70.35
2023-04-09T08:56:06.205Z,70.66
2023-04-09T08:57:06.135Z,71.28
2023-04-09T08:58:06.210Z,71.45
2023-04-09T08:59:06.094Z,68.57
2023-04-09T09:00:06.102Z,68.70
2023-04-09T09:01:06.091Z,70.01
2023-04-09T09:02:06.140Z,68.08
2023-04-09T09:03:06.379Z,67.16
2023-04-09T09:04:06.119Z,67.36
2023-04-09T09:05:06.029Z,68.70
2023-04-09T09:06:06.019Z,68.60
2023-04-09T09:07:06.005Z,69.42
2023-04-09T09:08:05.996Z,68.91
2023-04-09T09:09:06.003Z,68.19
2023-04-09T09:10:06.008Z,69.01
2023-04-09T09:11:05.971Z,68.40
2023-04-09T09:12:05.979Z,68.88
2023-04-09T09:13:05.949Z,69.39
2023-04-09T09:14:05.990Z,68.46
2023-04-09T09:15:05.927Z,67.30
2023-04-09T09:16:05.916Z,69.64
2023-04-09T09:17:06.026Z,68.65
2023-04-09T09:18:06.019Z,65.81
2023-04-09T09:19:05.892Z,68.17
2023-04-09T09:20:05.912Z,66.53
2023-04-09T09:21:05.854Z,65.00
2023-04-09T09:22:05.850Z,64.00
2023-04-09T09:23:05.866Z,64.72
2023-04-09T09:24:05.913Z,62.80
2023-04-09T09:25:05.833Z,65.06
2023-04-09T09:26:05.850Z,64.57
2023-04-09T09:27:05.818Z,64.78
2023-04-09T09:28:05.799Z,64.88
2023-04-09T09:29:05.983Z,64.09
2023-04-09T09:30:05.803Z,65.32
2023-04-09T09:31:05.767Z,65.32
2023-04-09T09:32:05.760Z,65.25
2023-04-09T09:33:05.745Z,66.58
2023-04-09T09:34:05.723Z,66.17
2023-04-09T09:35:05.725Z,68.26
2023-04-09T09:36:05.804Z,68.57
2023-04-09T09:37:06.821Z,67.75
2023-04-09T09:38:05.701Z,67.44
2023-04-09T09:39:05.686Z,67.75
2023-04-09T09:40:05.698Z,68.57
2023-04-09T09:41:05.658Z,68.77
2023-04-09T09:42:05.648Z,69.39
2023-04-09T09:43:05.633Z,69.09
2023-04-09T09:44:05.624Z,69.18
2023-04-09T09:45:05.614Z,68.67
2023-04-09T09:46:05.660Z,69.80
2023-04-09T09:47:05.609Z,69.53
2023-04-09T09:48:05.673Z,71.28
2023-04-09T09:49:05.598Z,70.25
2023-04-09T09:50:05.574Z,70.25
2023-04-09T09:51:05.544Z,71.07
2023-04-09T09:52:05.569Z,70.97
2023-04-09T09:53:05.537Z,70.35
2023-04-09T09:54:05.593Z,71.89
2023-04-09T09:55:05.512Z,70.90
2023-04-09T09:56:05.560Z,71.10
2023-04-09T09:57:05.487Z,70.45
2023-04-09T09:58:05.474Z,70.97
2023-04-09T09:59:05.495Z,70.45
2023-04-09T10:00:05.511Z,69.98
2023-04-09T10:01:05.464Z,68.91
2023-04-09T10:02:05.655Z,67.32
2023-04-09T10:03:05.679Z,65.49
2023-04-09T10:04:05.507Z,61.61
2023-04-09T10:05:05.397Z,61.46
2023-04-09T10:06:05.463Z,59.84
2023-04-09T10:07:05.394Z,59.17
2023-04-09T10:08:05.439Z,56.63
2023-04-09T10:09:05.412Z,59.68
2023-04-09T10:10:05.363Z,58.11
2023-04-09T10:11:05.344Z,57.57
2023-04-09T10:12:05.331Z,59.88
2023-04-09T10:13:05.332Z,61.44
2023-04-09T10:14:05.428Z,60.85
2023-04-09T10:15:05.293Z,61.60
2023-04-09T10:16:05.407Z,61.80
2023-04-09T10:17:05.278Z,61.32
2023-04-09T10:18:05.578Z,62.27
2023-04-09T10:19:05.285Z,62.92
2023-04-09T10:20:05.273Z,63.22
2023-04-09T10:21:05.240Z,64.25
2023-04-09T10:22:05.261Z,63.84
2023-04-09T10:23:05.212Z,63.35
2023-04-09T10:24:05.205Z,62.95
2023-04-09T10:25:05.210Z,65.44
2023-04-09T10:26:05.204Z,64.51
2023-04-09T10:27:05.174Z,63.18
2023-04-09T10:28:05.147Z,63.39
2023-04-09T10:29:05.150Z,63.69
2023-04-09T10:30:05.226Z,64.89
2023-04-09T10:31:05.169Z,61.82
2023-04-09T10:32:05.116Z,63.46
2023-04-09T10:33:05.132Z,63.05
2023-04-09T10:34:05.098Z,60.76
2023-04-09T10:35:05.080Z,59.56
2023-04-09T10:36:05.156Z,59.02
2023-04-09T10:37:05.072Z,58.44
2023-04-09T10:38:05.069Z,59.05
2023-04-09T10:39:05.056Z,58.64
2023-04-09T10:40:05.040Z,59.46
2023-04-09T10:41:05.066Z,59.56
2023-04-09T10:42:05.002Z,58.64
2023-04-09T10:43:04.997Z,59.12
2023-04-09T10:44:05.021Z,58.81
2023-04-09T10:45:04.980Z,59.74
2023-04-09T10:46:05.010Z,58.92
2023-04-09T10:47:04.970Z,57.97
2023-04-09T10:48:04.983Z,58.17
2023-04-09T10:49:04.940Z,60.10
2023-04-09T10:50:05.035Z,56.92
2023-04-09T10:51:04.915Z,55.49
2023-04-09T10:52:04.965Z,56.51
2023-04-09T10:53:04.898Z,56.82
2023-04-09T10:54:04.909Z,56.43
2023-04-09T10:55:04.871Z,57.56
2023-04-09T10:56:04.875Z,57.97
2023-04-09T10:57:04.875Z,56.51
2023-04-09T10:58:04.949Z,58.15
2023-04-09T10:59:04.827Z,58.04
2023-04-09T11:00:04.847Z,58.25
2023-04-09T11:01:04.801Z,57.30
2023-04-09T11:02:04.871Z,56.79
2023-04-09T11:03:04.980Z,56.59
2023-04-09T11:04:04.785Z,56.48
2023-04-09T11:05:04.828Z,57.30
2023-04-09T11:06:04.799Z,56.76
2023-04-09T11:07:04.745Z,56.35
2023-04-09T11:08:04.751Z,57.99
2023-04-09T11:09:04.729Z,57.68
2023-04-09T11:10:04.732Z,58.20
2023-04-09T11:11:04.755Z,56.15
2023-04-09T11:12:04.715Z,55.54
2023-04-09T11:13:04.710Z,54.95
2023-04-09T11:14:04.718Z,55.56
2023-04-09T11:15:04.656Z,55.26
2023-04-09T11:16:04.675Z,56.89
2023-04-09T11:17:04.638Z,55.49
2023-04-09T11:18:04.657Z,56.82
2023-04-09T11:19:04.650Z,56.61
2023-04-09T11:20:04.640Z,56.51
2023-04-09T11:21:04.680Z,59.38
2023-04-09T11:22:04.614Z,55.58
2023-04-09T11:23:04.589Z,57.43
2023-04-09T11:24:04.606Z,57.51
2023-04-09T11:25:04.554Z,56.28
2023-04-09T11:26:04.586Z,58.43
2023-04-09T11:27:04.543Z,60.03
2023-04-09T11:28:04.587Z,56.66
2023-04-09T11:29:04.518Z,57.89
2023-04-09T11:30:04.532Z,55.74
2023-04-09T11:31:04.542Z,55.62
2023-04-09T11:32:04.585Z,54.80
2023-04-09T11:33:04.519Z,53.67
2023-04-09T11:34:04.489Z,55.41
2023-04-09T11:35:04.451Z,53.16
2023-04-09T11:36:04.503Z,52.85
2023-04-09T11:37:04.425Z,54.80
2023-04-09T11:38:04.430Z,54.69
2023-04-09T11:39:04.418Z,54.49
2023-04-09T11:40:04.403Z,54.90
2023-04-09T11:41:04.391Z,55.54
2023-04-09T11:42:04.434Z,56.05
2023-04-09T11:43:04.374Z,55.94
2023-04-09T11:44:04.383Z,56.56
2023-04-09T11:45:04.338Z,54.23
2023-04-09T11:46:04.335Z,55.33
2023-04-09T11:47:04.419Z,57.68
2023-04-09T11:48:04.428Z,57.38
2023-04-09T11:49:04.316Z,55.30
2023-04-09T11:50:04.391Z,56.02
2023-04-09T11:51:04.296Z,56.20
2023-04-09T11:52:04.284Z,55.49
2023-04-09T11:53:04.267Z,54.13
2023-04-09T11:54:04.264Z,56.58
2023-04-09T11:55:04.241Z,56.89
2023-04-09T11:56:04.259Z,54.21
2023-04-09T11:57:04.221Z,53.90
2023-04-09T11:58:04.217Z,54.61
2023-04-09T11:59:04.191Z,54.31
2023-04-09T12:00:05.324Z,53.49
2023-04-09T12:01:04.192Z,53.80
2023-04-09T12:02:04.283Z,53.08
2023-04-09T12:03:04.785Z,53.92
2023-04-09T12:04:04.363Z,54.23
2023-04-09T12:05:04.182Z,54.03
2023-04-09T12:06:04.252Z,54.16
2023-04-09T12:07:04.110Z,55.18
2023-04-09T12:08:04.168Z,55.49
2023-04-09T12:09:04.097Z,55.21
2023-04-09T12:10:04.244Z,55.41
2023-04-09T12:11:04.062Z,55.54
2023-04-09T12:12:04.098Z,55.54
2023-04-09T12:13:04.059Z,56.15
2023-04-09T12:14:04.179Z,56.05
2023-04-09T12:15:04.043Z,57.48
2023-04-09T12:16:04.133Z,57.38
2023-04-09T12:17:04.041Z,55.33
2023-04-09T12:18:04.119Z,57.58
2023-04-09T12:19:04.015Z,57.58
2023-04-09T12:20:04.002Z,56.94
2023-04-09T12:21:03.978Z,56.33
2023-04-09T12:22:03.991Z,56.23
2023-04-09T12:23:03.961Z,55.49
2023-04-09T12:24:03.965Z,55.58
2023-04-09T12:25:03.927Z,56.38
2023-04-09T12:26:04.020Z,56.79
2023-04-09T12:27:03.929Z,54.92
2023-04-09T12:28:03.970Z,55.63
2023-04-09T12:29:03.883Z,55.63
2023-04-09T12:30:03.894Z,53.70
2023-04-09T12:31:03.953Z,52.98
2023-04-09T12:32:03.991Z,55.13
2023-04-09T12:33:03.929Z,52.80
2023-04-09T12:34:03.862Z,53.83
2023-04-09T12:35:03.829Z,54.23
2023-04-09T12:36:03.897Z,53.85
2023-04-09T12:37:03.824Z,53.85
2023-04-09T12:38:03.801Z,53.88
2023-04-09T12:39:03.785Z,54.80
2023-04-09T12:40:03.803Z,54.80
2023-04-09T12:41:03.756Z,54.10
2023-04-09T12:42:03.784Z,55.94
2023-04-09T12:43:03.765Z,55.23
2023-04-09T12:44:03.737Z,56.35
2023-04-09T12:45:03.720Z,57.07
2023-04-09T12:46:03.744Z,55.74
2023-04-09T12:47:03.703Z,55.43
2023-04-09T12:48:03.773Z,54.41
2023-04-09T12:49:03.679Z,54.92
2023-04-09T12:50:03.672Z,54.72
2023-04-09T12:51:03.658Z,55.74
2023-04-09T12:52:03.651Z,56.87
2023-04-09T12:53:03.650Z,55.84
2023-04-09T12:54:03.677Z,55.33
2023-04-09T12:55:03.613Z,54.51
2023-04-09T12:56:03.660Z,56.07
2023-04-09T12:57:03.609Z,55.94
2023-04-09T12:58:03.616Z,56.59
2023-04-09T12:59:03.575Z,57.38
2023-04-09T13:00:03.577Z,55.46
2023-04-09T13:01:03.578Z,54.54
2023-04-09T13:02:03.695Z,54.64